Latest Weather Observations for Katanning RS

IDW60801

Issued at 5:32 pm WST Friday 31 July 2015 (issued every 30 minutes, with the page automatically refreshed every 10 minutes)

About weather observations | Map of weather stations | Latest weather observations for WA | Other Formats
Station Details ID: 010916 Name: KATANNING Lat: -33.69 Lon: 117.61 Height: 320.0 m
Data from the previous 72 hours. | See also: Recent months at Katanning RS
Date/Time
WST
Temp
°C
App
Temp
°C
Dew
Point
Rel
Hum
%
Delta-T
°C
Wind Press
QNH
hPa
Press
MSL
hPa
Rain
since 9 am
mm
Dir
 
Spd
km/h
Gust
km/h
Spd
kts
Gust
kts
31/05:30pm 10.8 6.8 8.9 88 1.0 SE 20 32 11 17 1015.0 1015.2 19.6
31/05:00pm 10.7 4.7 8.8 88 1.0 SE 30 43 16 23 1014.7 1014.9 19.6
31/04:30pm 11.4 7.1 9.5 88 1.0 SE 22 33 12 18 1015.1 1015.3 19.6
31/04:00pm 11.8 6.4 9.5 86 1.2 SE 28 41 15 22 1014.4 1014.6 19.6
31/03:30pm 12.7 7.5 10.4 86 1.2 ESE 28 39 15 21 1013.5 1013.7 19.6
31/03:00pm 12.8 7.6 10.3 85 1.3 SE 28 39 15 21 1013.4 1013.5 19.6
31/02:30pm 13.0 8.5 10.2 83 1.5 ESE 24 35 13 19 1014.0 1014.2 19.6
31/02:00pm 13.2 8.0 10.4 83 1.5 ESE 28 39 15 21 1013.6 1013.8 19.6
31/01:30pm 13.0 7.1 10.5 85 1.3 ESE 32 44 17 24 1013.0 1013.1 19.6
31/01:00pm 12.8 7.7 10.7 87 1.1 SE 28 39 15 21 1013.6 1013.8 19.6
31/12:30pm 13.0 8.8 11.2 89 1.0 SE 24 32 13 17 1013.7 1013.9 19.6
31/12:00pm 13.7 12.0 12.3 91 0.8 ESE 13 20 7 11 1014.0 1014.2 19.6
31/11:30am 13.5 12.4 12.1 91 0.8 ESE 9 15 5 8 1014.3 1014.5 19.6
31/11:00am 13.5 12.1 12.1 91 0.8 ESE 11 15 6 8 1014.1 1014.3 19.6
31/10:30am 13.4 12.9 12.0 91 0.8 ESE 6 7 3 4 1014.3 1014.5 19.4
31/10:00am 13.3 13.1 11.9 91 0.8 N 4 6 2 3 1014.8 1015.0 9.8
31/09:30am 13.1 12.9 11.7 91 0.8 N 4 7 2 4 1014.3 1014.5 3.2
31/09:00am 13.0 13.5 11.6 91 0.8 CALM 0 2 0 1 1013.8 1014.0 7.6
31/08:30am 12.7 10.6 11.1 90 0.9 SSW 13 17 7 9 1014.1 1014.3 5.0
31/08:00am 13.8 13.3 12.2 90 0.9 ESE 6 9 3 5 1014.1 1014.3 1.8
31/07:30am 13.8 13.7 12.2 90 0.9 NNE 4 6 2 3 1014.1 1014.3 1.6
31/07:00am 13.8 14.5 12.2 90 0.9 CALM 0 6 0 3 1013.9 1014.1 1.0
31/06:30am 13.8 13.3 12.0 89 1.0 NE 6 7 3 4 1013.1 1013.2 1.0
31/06:00am 13.8 14.0 12.0 89 1.0 NNE 2 6 1 3 1013.4 1013.5 1.0
31/05:30am 13.8 13.6 11.8 88 1.1 NNE 4 6 2 3 1013.3 1013.4 1.0
31/05:00am 14.0 13.8 11.9 87 1.1 N 4 6 2 3 1013.6 1013.8 1.0
31/04:30am 14.1 13.6 12.0 87 1.2 NNW 6 9 3 5 1013.7 1013.9 1.0
31/04:00am 14.0 13.2 11.7 86 1.3 N 7 11 4 6 1013.7 1013.9 1.0
31/03:30am 14.0 13.8 11.9 87 1.1 NNW 4 7 2 4 1013.7 1013.9 1.0
31/03:00am 14.0 12.8 11.7 86 1.3 N 9 13 5 7 1012.9 1013.0 1.0
31/02:30am 14.6 12.3 11.7 83 1.6 NNW 15 22 8 12 1014.3 1014.5 0.2
31/02:00am 14.4 11.8 12.1 86 1.3 NNW 17 24 9 13 1014.3 1014.5 0.2
31/01:30am 14.1 11.9 12.0 87 1.2 NNW 15 20 8 11 1014.2 1014.4 0.2
31/01:00am 13.9 12.4 11.9 88 1.1 NNW 11 17 6 9 1014.2 1014.4 0.2
31/12:30am 14.1 12.3 12.1 88 1.1 N 13 19 7 10 1014.6 1014.8 0.2
31/12:00am 14.3 13.6 12.0 86 1.3 NNW 7 11 4 6 1015.2 1015.4 0.2
 
Date/Time
WST
Temp
°C
App
Temp
°C
Dew
Point
Rel
Hum
%
Delta-T
°C
Wind Press
QNH
hPa
Press
MSL
hPa
Rain
since 9 am
mm
Dir
 
Spd
km/h
Gust
km/h
Spd
kts
Gust
kts
30/11:30pm 14.8 13.1 12.3 85 1.4 N 13 20 7 11 1015.3 1015.5 0.2
30/11:00pm 15.2 12.8 12.5 84 1.5 NNW 17 24 9 13 1016.1 1016.2 0.2
30/10:30pm 15.5 13.1 12.6 83 1.6 NNW 17 28 9 15 1016.8 1017.0 0.2
30/10:00pm 15.2 14.1 13.1 87 1.2 WNW 11 17 6 9 1017.1 1017.3 0.2
30/09:30pm 15.0 13.5 13.2 89 1.0 N 13 17 7 9 1016.4 1016.6 0.2
30/09:00pm 15.0 14.0 13.4 90 0.9 N 11 17 6 9 1016.7 1016.9 0.2
30/08:30pm 15.0 14.0 13.4 90 0.9 N 11 15 6 8 1016.6 1016.8 0.2
30/08:00pm 14.8 14.5 13.2 90 0.9 N 7 9 4 5 1017.3 1017.5 0.2
30/07:30pm 14.8 13.7 13.2 90 0.9 N 11 13 6 7 1017.2 1017.4 0.2
30/07:00pm 15.0 14.9 13.4 90 0.9 NNE 6 9 3 5 1017.8 1018.0 0.2
30/06:30pm 14.9 14.8 13.3 90 0.9 NNE 6 9 3 5 1018.0 1018.2 0.2
30/06:00pm 14.9 14.2 13.1 89 1.0 NNE 9 13 5 7 1017.7 1017.9 0.2
30/05:30pm 14.9 14.5 13.1 89 1.0 NNE 7 11 4 6 1017.7 1017.9 0.2
30/05:00pm 14.8 14.3 12.8 88 1.1 NE 7 9 4 5 1017.8 1018.0 0.2
30/04:30pm 14.7 13.8 12.6 87 1.2 NE 9 13 5 7 1018.0 1018.2 0.2
30/04:00pm 14.6 13.7 12.6 88 1.1 NE 9 11 5 6 1018.4 1018.6 0.2
30/03:30pm 14.3 13.3 12.2 87 1.2 ENE 9 13 5 7 1018.6 1018.8 0.2
30/03:00pm 14.3 12.9 12.2 87 1.2 NE 11 13 6 7 1018.6 1018.8 0.2
30/02:30pm 14.2 12.8 12.2 88 1.1 NE 11 15 6 8 1019.1 1019.3 0.2
30/02:00pm 13.9 12.5 12.1 89 1.0 ENE 11 15 6 8 1019.5 1019.7 0.2
30/01:30pm 13.5 11.9 11.7 89 1.0 ENE 11 17 6 9 1020.0 1020.2 0.2
30/01:00pm 13.3 11.7 11.5 89 1.0 NE 11 17 6 9 1020.6 1020.8 0.2
30/12:30pm 13.1 11.4 11.3 89 1.0 ENE 11 15 6 8 1021.1 1021.3 0.0
30/12:00pm 13.0 10.9 11.2 89 1.0 ENE 13 17 7 9 1021.4 1021.7 0.0
30/11:30am 12.6 10.5 11.0 90 0.9 ENE 13 17 7 9 1021.8 1022.1 0.0
30/11:00am 12.3 10.5 10.9 91 0.7 ENE 11 15 6 8 1022.3 1022.5 0.0
30/10:30am 12.2 10.0 10.9 92 0.7 ENE 13 19 7 10 1022.5 1022.7 0.0
30/10:00am 11.9 9.6 10.6 92 0.7 ENE 13 15 7 8 1022.6 1022.8 0.0
30/09:30am 11.5 9.1 10.2 92 0.7 E 13 17 7 9 1022.7 1022.9 0.0
30/09:00am 11.3 8.9 10.0 92 0.7 E 13 20 7 11 1022.8 1023.0 0.2
30/08:30am 10.9 8.4 9.7 92 0.6 E 13 17 7 9 1022.4 1022.6 0.2
30/08:00am 10.4 8.5 9.2 92 0.6 E 9 11 5 6 1022.1 1022.4 0.2
30/07:30am 9.7 8.2 8.5 92 0.6 ESE 6 11 3 6 1022.1 1022.4 0.2
30/07:00am 10.1 8.7 8.9 92 0.6 ESE 6 7 3 4 1021.7 1022.0 0.2
30/06:30am 9.7 8.9 8.3 91 0.7 ESE 2 4 1 2 1021.5 1021.8 0.2
30/06:00am 9.6 8.4 8.2 91 0.7 NNE 4 6 2 3 1021.2 1021.4 0.2
30/05:30am 9.7 9.4 8.5 92 0.6 CALM 0 0 0 0 1021.2 1021.4 0.2
30/05:00am 8.4 6.6 7.0 91 0.7 SE 6 7 3 4 1020.7 1020.9 0.0
30/04:30am 10.5 9.9 9.1 91 0.7 N 2 6 1 3 1020.7 1020.9 0.0
30/04:00am 10.0 8.9 8.6 91 0.7 NNW 4 7 2 4 1021.0 1021.2 0.0
30/03:30am 8.2 6.7 6.7 90 0.7 N 4 6 2 3 1020.9 1021.1 0.0
30/03:00am 9.0 8.4 7.6 91 0.7 CALM 0 0 0 0 1020.8 1021.0 0.0
30/02:30am 8.7 8.1 7.2 90 0.7 CALM 0 2 0 1 1020.9 1021.1 0.0
30/02:00am 9.6 9.1 8.0 90 0.8 CALM 0 0 0 0 1020.9 1021.1 0.0
30/01:30am 10.2 9.1 8.5 89 0.8 SSW 4 4 2 2 1020.9 1021.1 0.0
30/01:00am 11.3 10.5 9.6 89 0.9 SSW 4 6 2 3 1020.8 1021.0 0.0
30/12:30am 11.7 11.0 10.1 90 0.8 SW 4 6 2 3 1020.8 1021.0 0.0
30/12:00am 11.3 10.5 9.6 89 0.9 WSW 4 6 2 3 1020.9 1021.1 0.0
 
Date/Time
WST
Temp
°C
App
Temp
°C
Dew
Point
Rel
Hum
%
Delta-T
°C
Wind Press
QNH
hPa
Press
MSL
hPa
Rain
since 9 am
mm
Dir
 
Spd
km/h
Gust
km/h
Spd
kts
Gust
kts
29/11:30pm 11.4 10.0 9.7 89 0.9 WSW 7 9 4 5 1020.9 1021.1 0.0
29/11:00pm 10.5 8.5 8.6 88 0.9 SSW 9 17 5 9 1020.8 1021.0 0.0
29/10:30pm 11.5 10.1 9.4 87 1.1 W 7 9 4 5 1020.7 1020.9 0.0
29/10:00pm 11.8 10.1 9.7 87 1.1 WNW 9 11 5 6 1020.5 1020.7 0.0
29/09:30pm 12.5 11.3 10.2 86 1.2 WNW 7 11 4 6 1020.3 1020.5 0.0
29/09:00pm 12.7 11.6 10.8 88 1.0 NW 7 11 4 6 1020.1 1020.3 0.0
29/08:30pm 12.8 11.8 11.0 89 1.0 WNW 7 9 4 5 1020.2 1020.4 0.0
29/08:00pm 12.2 11.1 10.1 87 1.1 NNW 6 6 3 3 1019.7 1019.9 0.0
29/07:30pm 13.1 12.6 10.8 86 1.2 NW 4 6 2 3 1019.6 1019.8 0.0
29/07:00pm 13.5 12.7 11.0 85 1.3 NW 6 7 3 4 1019.5 1019.7 0.0
29/06:30pm 13.9 13.1 11.2 84 1.5 NW 6 7 3 4 1019.3 1019.5 0.0
29/06:00pm 14.2 13.9 11.4 83 1.5 WNW 4 7 2 4 1018.8 1019.1 0.0
29/05:30pm 14.5 14.2 11.5 82 1.6 NNW 4 4 2 2 1018.3 1018.5 0.0
29/05:00pm 15.4 14.9 12.0 80 1.9 NNW 6 7 3 4 1017.7 1017.9 0.0
29/04:30pm 15.6 14.5 12.0 79 2.0 NNW 9 11 5 6 1017.8 1018.0 0.0
29/04:00pm 15.8 14.7 11.8 77 2.2 NW 9 15 5 8 1017.7 1017.9 0.0
29/03:30pm 15.9 14.3 11.7 76 2.3 NW 11 15 6 8 1017.5 1017.7 0.0
29/03:00pm 15.8 14.0 12.0 78 2.1 NNW 13 19 7 10 1017.6 1017.8 0.0
29/02:30pm 15.9 13.6 11.7 76 2.3 NW 15 20 8 11 1017.4 1017.6 0.0
29/02:00pm 15.4 12.7 11.6 78 2.1 NW 17 24 9 13 1017.4 1017.6 0.0
29/01:30pm 15.1 12.3 11.3 78 2.1 NW 17 26 9 14 1017.3 1017.5 0.0
29/01:00pm 13.9 12.2 11.2 84 1.5 NW 11 17 6 9 1017.5 1017.7 0.0
29/12:30pm 13.6 12.4 11.7 88 1.0 NNW 9 13 5 7 1017.8 1018.0 0.0
29/12:00pm 13.0 11.7 11.4 90 0.9 WNW 9 13 5 7 1017.9 1018.1 0.0
29/11:30am 12.4 11.0 11.0 91 0.7 WNW 9 15 5 8 1018.4 1018.6 0.0
29/11:00am 12.3 10.9 10.9 91 0.7 NW 9 13 5 7 1018.6 1018.8 0.0
29/10:30am 12.1 10.7 10.8 92 0.7 WNW 9 15 5 8 1018.8 1019.1 0.0
29/10:00am 12.0 10.9 10.7 92 0.7 NW 7 11 4 6 1018.7 1018.9 0.0
29/09:30am 11.5 9.9 10.2 92 0.7 NW 9 15 5 8 1018.6 1018.8 0.0
29/09:00am 11.0 9.3 9.8 92 0.6 NNW 9 13 5 7 1018.7 1018.9 1.0
29/08:30am 10.8 9.4 9.6 92 0.6 N 7 11 4 6 1018.7 1018.9 1.0
29/08:00am 10.5 9.0 9.3 92 0.6 NNW 7 11 4 6 1018.7 1018.9 1.0
29/07:30am 10.3 8.8 9.1 92 0.6 NNW 7 9 4 5 1018.2 1018.4 1.0
29/07:00am 10.2 8.6 8.8 91 0.7 NNW 7 9 4 5 1017.9 1018.1 1.0
29/06:30am 10.2 8.2 8.8 91 0.7 NNW 9 13 5 7 1017.6 1017.8 1.0
29/06:00am 10.3 8.4 8.9 91 0.7 NW 9 11 5 6 1017.4 1017.6 1.0
29/05:30am 10.5 9.0 9.1 91 0.7 NW 7 11 4 6 1017.3 1017.5 1.0
29/05:00am 10.6 9.3 9.2 91 0.7 NW 6 7 3 4 1017.2 1017.4 1.0
29/04:30am 10.6 9.6 9.0 90 0.8 WNW 4 6 2 3 1017.0 1017.2 1.0
29/04:00am 10.6 9.6 9.0 90 0.8 NW 4 6 2 3 1016.9 1017.1 1.0
29/03:30am 10.6 10.4 9.0 90 0.8 CALM 0 0 0 0 1016.9 1017.1 1.0
29/03:00am 10.5 9.1 8.9 90 0.8 NNW 6 7 3 4 1016.8 1017.0 1.0
29/02:30am 10.5 9.5 8.9 90 0.8 NW 4 6 2 3 1016.7 1016.9 1.0
29/02:00am 10.4 9.0 8.8 90 0.8 NW 6 9 3 5 1016.9 1017.1 1.0
29/01:30am 10.3 8.7 8.7 90 0.8 NW 7 13 4 7 1017.1 1017.3 1.0
29/01:00am 10.4 8.4 8.8 90 0.8 NNW 9 13 5 7 1016.9 1017.1 1.0
29/12:30am 10.4 8.4 8.8 90 0.8 NNW 9 11 5 6 1016.9 1017.1 1.0
29/12:00am 10.7 9.2 9.1 90 0.8 NNW 7 11 4 6 1016.9 1017.1 1.0
 
Date/Time
WST
Temp
°C
App
Temp
°C
Dew
Point
Rel
Hum
%
Delta-T
°C
Wind Press
QNH
hPa
Press
MSL
hPa
Rain
since 9 am
mm
Dir
 
Spd
km/h
Gust
km/h
Spd
kts
Gust
kts
28/11:30pm 10.7 9.2 9.1 90 0.8 NNW 7 9 4 5 1017.1 1017.3 1.0
28/11:00pm 10.7 9.3 9.0 89 0.9 NNW 6 7 3 4 1017.2 1017.4 1.0
28/10:30pm 10.7 9.3 9.0 89 0.9 NNW 6 7 3 4 1017.2 1017.4 1.0
28/10:00pm 10.9 9.4 9.2 89 0.9 NNW 7 9 4 5 1017.4 1017.6 1.0
28/09:30pm 10.9 9.4 9.0 88 1.0 NNW 7 9 4 5 1017.4 1017.6 1.0
28/09:00pm 11.1 9.2 9.2 88 1.0 NNW 9 15 5 8 1017.4 1017.6 1.0
28/08:30pm 11.3 8.6 9.0 86 1.2 NNW 13 17 7 9 1017.5 1017.7 1.0
28/08:00pm 11.7 9.4 9.1 84 1.3 NNW 11 17 6 9 1017.2 1017.4 1.0
28/07:30pm 11.7 10.3 9.4 86 1.2 NNW 7 11 4 6 1017.1 1017.3 1.0
28/07:00pm 11.8 10.6 9.5 86 1.2 N 6 7 3 4 1016.9 1017.1 1.0
28/06:30pm 11.8 10.6 9.4 85 1.2 N 6 9 3 5 1016.5 1016.7 1.0
28/06:00pm 11.8 9.6 9.4 85 1.2 NNW 11 15 6 8 1016.4 1016.6 1.0

Other Formats:

Comma delimited format used in spreadsheet applications
http://www.bom.gov.au/fwo/IDW60801/IDW60801.94641.axf

JavaScript Object Notation format (JSON) in row-major order
http://www.bom.gov.au/fwo/IDW60801/IDW60801.94641.json